EFHK/HEL METAR and TAF weather

Enter ICAO airport designator
Station Type Date Time Source
EFHK METAR 2020/07/02 21:20 UTC NOAA

EFHK 022120Z 14007KT 6000 SHRA BKN014 BKN035CB 15/14 Q1002 BECMG 9999 NSW FEW008 BKN030


Station Type Date Time Source
EFHK Decoded METAR 2020/07/02 21:20 UTC NOAA

Helsinki-Vantaa, Finland (EFHK) 60-19N 024-58E 56M
Jul 02, 2020 - 05:20 PM EDT / 2020.07.02 2120 UTC
Wind: from the SE (140 degrees) at 8 MPH (7 KT):0
Visibility: 3 mile(s):0
Sky conditions: mostly cloudy
Weather: rain showers; Cumulonimbus clouds observed
Temperature: 59 F (15 C)
Dew Point: 57 F (14 C)
Relative Humidity: 93%
Pressure (altimeter): 29.59 in. Hg (1002 hPa)
ob: EFHK 022120Z 14007KT 6000 SHRA BKN014 BKN035CB 15/14 Q1002 BECMG 9999 NSW FEW008 BKN030
cycle: 21

Station Type Date Time Source
EFHK TAF 2020/07/02 21:42 UTC NOAA

TAF TAF EFHK 022031Z 0221/0321 14007KT 4500 SHRA FEW004 BKN007 BKN035CB
BECMG 0221/0223 22010KT 9999 NSW FEW015

Example: see airport list